This is the latest recevied weather packets stored in our database for station/object KE8KMM. If no packets are shown the sender has not sent any weather packets the latest 1 day(s).
| Time | Temp. | Humidity | Pressure | Rain* | Wind** | Luminosity | Snow |
|---|---|---|---|---|---|---|---|
| 1778091262 | 14.44° C | 66% | 1010.2 hPa | 0 mm | - | 228 W/m² | - |
| 1778090352 | 15° C | 66% | 1010.1 hPa | 0 mm | - | 278 W/m² | - |
| 1778089140 | 15.56° C | 67% | 1010.4 hPa | 0 mm | - | 296 W/m² | - |
| 1778088534 | 15° C | 68% | 1010.2 hPa | 0 mm | - | 553 W/m² | - |
| 1778088230 | 15° C | 69% | 1010.2 hPa | 0 mm | - | 602 W/m² | - |
| 1778087928 | 14.44° C | 71% | 1010.3 hPa | 0 mm | - | 707 W/m² | - |
| 1778087018 | 14.44° C | 70% | 1010.4 hPa | 0 mm | - | 333 W/m² | - |
| 1778085194 | 13.33° C | 77% | 1010.5 hPa | 0 mm | - | 381 W/m² | - |
| 1778084890 | 13.33° C | 74% | 1010.6 hPa | 0 mm | - | 428 W/m² | - |
| 1778084285 | 13.33° C | 77% | 1010.4 hPa | 0 mm | - | 524 W/m² | - |
| 1778078313 | 10.56° C | 88% | 1009.6 hPa | 0 mm | - | 220 W/m² | - |
| 1778077708 | 10° C | 88% | 1009.3 hPa | 0 mm | - | 196 W/m² | - |
| 1778075893 | 10.56° C | 90% | 1008.8 hPa | 0 mm | - | 209 W/m² | - |
| 1778075589 | 10° C | 89% | 1008.7 hPa | 0 mm | - | 204 W/m² | - |
| 1778075286 | 10° C | 90% | 1008.8 hPa | 0 mm | - | 202 W/m² | - |
| 1778074073 | 9.44° C | 93% | 1008.7 hPa | 0 mm | - | 221 W/m² | - |
| 1778072256 | 8.33° C | 96% | 1008.5 hPa | 0 mm | - | 91 W/m² | - |
| 1778071349 | 8.33° C | 96% | 1008 hPa | 0 mm | - | 95 W/m² | - |
| 1778071046 | 8.33° C | 96% | 1007.8 hPa | 0 mm | - | 98 W/m² | - |
| 1778070745 | 8.33° C | 96% | 1007.9 hPa | 0 mm | - | 44 W/m² | - |
| 1778068928 | 7.78° C | 96% | 1007.8 hPa | 0 mm | - | 23 W/m² | - |
| 1778068626 | 7.78° C | 96% | 1007.9 hPa | 0 mm | - | 21 W/m² | - |
| 1778068324 | 7.78° C | 96% | 1007.7 hPa | 0 mm | - | 22 W/m² | - |
| 1778068021 | 7.78° C | 96% | 1007.4 hPa | 0 mm | - | 18 W/m² | - |
| 1778067114 | 7.78° C | 96% | 1007.1 hPa | 0 mm | - | 18 W/m² | - |
* Rain latest hour (hover to see other rain measurements)
** Current wind speed in m/s (hover to see current wind gust speed)